Time;durP1;ratioP1;P1;durP2;ratioP2;P2;SDS_P1;SDS_P2;PMS_P1;PMS_P2;Temp;Humidity;BMP_temperature;BMP_pressure;BME280_temperature;BME280_humidity;BME280_pressure;Samples;Min_cycle;Max_cycle;Signal;HPM_P1;HPM_P2
2022/02/11 00:07:13;;;;;;;25.57;13.60;;;;;;;0.52;68.38;101586.34;1709956;83;25623;-61
2022/02/11 00:09:40;;;;;;;28.90;14.05;;;;;;;0.54;68.36;101580.55;1710185;83;25791;-62
2022/02/11 00:12:09;;;;;;;29.15;16.12;;;;;;;0.55;68.20;101579.63;1710209;83;25760;-62
2022/02/11 00:14:48;;;;;;;24.20;13.32;;;;;;;0.55;68.25;101583.60;1710207;82;27455;-62
2022/02/11 00:17:05;;;;;;;27.30;16.05;;;;;;;0.58;68.38;101590.10;1695773;83;25767;-62
2022/02/11 00:19:32;;;;;;;31.57;16.23;;;;;;;0.62;68.57;101589.56;1679864;85;25734;-62
2022/02/11 00:21:59;;;;;;;26.45;15.78;;;;;;;0.67;68.71;101587.61;1679552;85;26450;-62
2022/02/11 00:24:26;;;;;;;26.68;13.60;;;;;;;0.71;68.69;101587.05;1679306;84;25492;-61
2022/02/11 00:27:21;;;;;;;29.63;14.75;;;;;;;0.70;68.68;101590.61;1677394;85;27488;-61
2022/02/11 00:30:15;;;;;;;23.32;14.25;;;;;;;0.65;68.62;101576.67;1695826;83;25850;-61
2022/02/11 00:32:08;;;;;;;30.57;14.13;;;;;;;0.66;68.72;101574.44;1709135;83;25715;-61
2022/02/11 00:34:38;;;;;;;27.05;15.00;;;;;;;0.68;68.72;101580.08;1709798;83;25761;-61
2022/02/11 00:37:10;;;;;;;23.45;14.05;;;;;;;0.69;68.46;101586.23;1701981;83;25775;-62
2022/02/11 00:39:56;;;;;;;24.67;13.72;;;;;;;0.66;68.19;101578.41;1691517;83;28223;-60
2022/02/11 00:53:28;;;;;;;42.80;22.37;;;;;;;0.49;68.45;101546.75;1655881;84;26456;-61
2022/02/11 01:06:03;;;;;;;27.27;15.32;;;;;;;0.06;69.01;101567.98;1683285;85;27471;-61
2022/02/11 01:08:29;;;;;;;29.02;16.42;;;;;;;0.02;69.29;101563.26;1683272;85;25747;-62
2022/02/11 01:10:59;;;;;;;30.40;16.67;;;;;;;0.04;69.49;101553.50;1683083;84;25672;-62
2022/02/11 01:13:25;;;;;;;31.93;16.15;;;;;;;0.09;69.65;101556.00;1681828;85;25860;-62
2022/02/11 01:16:01;;;;;;;31.00;17.32;;;;;;;0.15;69.69;101559.76;1681924;85;26182;-62
2022/02/11 01:18:21;;;;;;;35.03;16.93;;;;;;;0.21;69.76;101563.98;1681444;84;27482;-62
2022/02/11 01:20:54;;;;;;;31.70;17.57;;;;;;;0.22;69.76;101565.73;1682996;83;25769;-62
2022/02/11 01:23:35;;;;;;;31.12;16.75;;;;;;;0.23;69.87;101557.73;1659598;85;25494;-62
2022/02/11 01:26:18;;;;;;;33.85;17.20;;;;;;;0.21;69.37;101545.47;1683673;83;25821;-62
2022/02/11 01:28:36;;;;;;;37.15;18.98;;;;;;;0.15;69.19;101554.47;1678806;85;25922;-62
2022/02/11 01:36:21;;;;;;;38.50;18.05;;;;;;;0.02;69.41;101545.21;1682408;84;25767;-62
2022/02/11 01:38:45;;;;;;;35.08;17.57;;;;;;;0.03;69.69;101554.88;1659302;84;25873;-62
2022/02/11 01:58:20;;;;;;;34.95;19.35;;;;;;;-0.01;70.56;101547.50;1699134;84;28176;-62
2022/02/11 02:18:36;;;;;;;33.63;19.55;;;;;;;-0.23;69.75;101531.45;1668971;84;26444;-61
2022/02/11 02:29:19;;;;;;;41.10;18.52;;;;;;;-0.33;69.64;101542.31;1666951;84;26240;-61
2022/02/11 02:32:26;;;;;;;34.33;17.50;;;;;;;-0.34;69.72;101537.05;1687319;83;25838;-61
2022/02/11 02:58:07;;;;;;;34.50;19.50;;;;;;;-0.51;69.88;101533.61;1695132;84;25791;-61
2022/02/11 05:00:14;;;;;;;40.38;15.63;;;;;;;-1.02;71.19;101516.58;1660529;86;25850;-62
2022/02/11 05:02:38;;;;;;;26.55;16.35;;;;;;;-1.03;71.21;101511.73;1660962;86;25871;-61
2022/02/11 05:05:08;;;;;;;25.97;15.70;;;;;;;-1.02;71.23;101512.16;1662169;86;28158;-63
2022/02/11 05:07:36;;;;;;;30.40;16.32;;;;;;;-1.01;71.15;101507.75;1661686;86;25775;-62
2022/02/11 05:10:08;;;;;;;28.95;15.80;;;;;;;-1.00;71.34;101505.06;1663276;84;25785;-62
2022/02/11 05:12:36;;;;;;;30.88;15.43;;;;;;;-0.94;71.49;101507.98;1695984;84;25808;-60
2022/02/11 05:15:08;;;;;;;31.10;16.90;;;;;;;-0.90;71.47;101508.33;1664632;86;25938;-61
2022/02/11 05:17:43;;;;;;;30.80;16.70;;;;;;;-0.85;71.28;101509.52;1662964;85;28361;-62
2022/02/11 05:20:11;;;;;;;33.20;17.10;;;;;;;-0.81;71.30;101517.74;1666364;86;25732;-62
2022/02/11 05:22:38;;;;;;;41.33;18.35;;;;;;;-0.76;71.53;101520.25;1663936;84;25794;-62
2022/02/11 05:25:08;;;;;;;38.08;19.40;;;;;;;-0.72;71.52;101524.08;1676808;83;25789;-61
2022/02/11 05:27:37;;;;;;;57.75;19.90;;;;;;;-0.68;71.62;101524.85;1660357;86;25552;-60
2022/02/11 05:30:06;;;;;;;38.63;20.85;;;;;;;-0.66;71.60;101530.49;1660380;86;28218;-61
2022/02/11 05:32:32;;;;;;;40.83;20.95;;;;;;;-0.62;71.59;101527.30;1654968;86;25836;-60
2022/02/11 05:34:59;;;;;;;44.25;25.05;;;;;;;-0.58;71.43;101532.92;1663082;86;25700;-61
2022/02/11 05:37:26;;;;;;;44.95;25.25;;;;;;;-0.57;71.35;101540.38;1663631;84;26152;-60
2022/02/11 05:39:53;;;;;;;46.73;20.57;;;;;;;-0.56;71.12;101526.26;1694466;83;25774;-61
2022/02/11 05:42:20;;;;;;;35.63;19.85;;;;;;;-0.58;71.00;101543.96;1652647;85;27493;-61
2022/02/11 05:44:47;;;;;;;41.70;20.30;;;;;;;-0.58;71.12;101534.72;1701976;83;25847;-61
2022/02/11 05:47:13;;;;;;;49.55;21.93;;;;;;;-0.58;71.14;101538.67;1683972;83;25788;-61
2022/02/11 05:49:40;;;;;;;68.07;32.70;;;;;;;-0.53;71.17;101543.36;1693468;84;25768;-61
2022/02/11 05:52:08;;;;;;;55.90;25.68;;;;;;;-0.50;71.16;101553.38;1691896;83;25644;-61
2022/02/11 05:54:35;;;;;;;55.28;26.02;;;;;;;-0.49;71.09;101555.11;1691884;84;27497;-61
2022/02/11 05:57:03;;;;;;;49.10;24.63;;;;;;;-0.49;70.97;101552.47;1691678;83;25791;-61
2022/02/11 05:59:35;;;;;;;67.40;33.77;;;;;;;-0.46;70.93;101551.51;1678269;84;25803;-61
2022/02/11 06:02:02;;;;;;;41.33;23.98;;;;;;;-0.45;71.01;101556.36;1691826;84;25735;-60
2022/02/11 06:04:28;;;;;;;38.42;21.17;;;;;;;-0.45;71.04;101558.53;1693003;84;26048;-61
2022/02/11 06:06:57;;;;;;;38.92;21.42;;;;;;;-0.44;71.01;101556.30;1692418;84;27536;-61
2022/02/11 06:09:24;;;;;;;47.23;19.95;;;;;;;-0.42;70.90;101559.77;1691705;84;25786;-60
2022/02/11 06:11:51;;;;;;;39.85;20.55;;;;;;;-0.41;70.88;101561.94;1691973;84;26430;-60
2022/02/11 06:14:18;;;;;;;46.95;23.18;;;;;;;-0.42;70.79;101561.09;1691666;84;27918;-61
2022/02/11 06:16:45;;;;;;;44.23;21.57;;;;;;;-0.41;70.81;101565.47;1691721;84;25577;-61
2022/02/11 06:19:12;;;;;;;34.85;18.92;;;;;;;-0.34;71.00;101565.69;1691609;83;27480;-61
2022/02/11 06:21:39;;;;;;;38.50;19.65;;;;;;;-0.26;70.95;101566.76;1691830;84;25799;-61
2022/02/11 06:24:07;;;;;;;40.48;22.20;;;;;;;-0.21;70.73;101567.94;1695661;83;25763;-61
2022/02/11 06:26:35;;;;;;;32.80;19.17;;;;;;;-0.17;70.86;101569.59;1720376;83;25855;-61
2022/02/11 06:29:02;;;;;;;45.38;19.73;;;;;;;-0.09;70.75;101567.58;1711049;81;25890;-61
2022/02/11 06:31:29;;;;;;;33.80;18.98;;;;;;;-0.04;70.77;101572.25;1693407;83;27355;-61
2022/02/11 06:33:55;;;;;;;43.25;22.82;;;;;;;0.02;70.72;101574.31;1692985;83;25677;-60
2022/02/11 06:36:23;;;;;;;48.20;20.20;;;;;;;0.07;70.78;101578.55;1661827;86;26326;-61
2022/02/11 06:38:50;;;;;;;41.42;21.82;;;;;;;0.12;70.55;101575.28;1661855;86;25794;-61
2022/02/11 06:41:17;;;;;;;55.95;21.45;;;;;;;0.16;70.55;101574.72;1646706;85;25918;-61
2022/02/11 06:43:43;;;;;;;41.68;21.80;;;;;;;0.22;70.65;101581.16;1694083;83;27458;-61
2022/02/11 06:46:11;;;;;;;40.73;22.90;;;;;;;0.33;70.71;101586.09;1714031;83;25795;-61
2022/02/11 06:48:38;;;;;;;48.60;24.37;;;;;;;0.46;70.69;101575.97;1725276;83;26288;-61
2022/02/11 06:51:05;;;;;;;55.05;23.85;;;;;;;0.59;70.77;101577.75;1695230;83;25787;-61
2022/02/11 06:53:32;;;;;;;44.80;23.47;;;;;;;0.67;70.77;101571.73;1695200;83;25772;-61
2022/02/11 06:55:59;;;;;;;43.17;24.75;;;;;;;0.75;70.75;101575.45;1695179;83;27493;-61
2022/02/11 06:58:26;;;;;;;49.33;24.82;;;;;;;0.83;70.61;101576.48;1694922;84;25861;-61
2022/02/11 07:00:54;;;;;;;54.10;27.32;;;;;;;0.89;70.69;101581.12;1688849;84;25555;-61
2022/02/11 07:03:24;;;;;;;44.90;25.10;;;;;;;0.95;70.68;101581.36;1673671;85;27188;-61
2022/02/11 07:05:54;;;;;;;50.12;26.45;;;;;;;1.01;70.76;101578.48;1631461;86;25842;-61
2022/02/11 07:08:20;;;;;;;44.80;25.25;;;;;;;1.12;70.64;101571.94;1672586;84;27477;-61
2022/02/11 07:10:47;;;;;;;45.40;26.27;;;;;;;1.24;70.75;101577.66;1669788;85;25761;-62
2022/02/11 07:13:14;;;;;;;50.28;28.02;;;;;;;1.35;70.77;101584.36;1686506;83;26524;-62
2022/02/11 07:15:43;;;;;;;52.83;27.95;;;;;;;1.46;70.85;101590.58;1695026;83;25831;-61
2022/02/11 07:18:11;;;;;;;47.00;26.45;;;;;;;1.55;70.91;101591.12;1696247;84;25743;-61
2022/02/11 07:20:38;;;;;;;42.75;24.05;;;;;;;1.64;70.83;101579.28;1687163;84;28241;-61
2022/02/11 07:23:07;;;;;;;53.10;26.95;;;;;;;1.73;70.69;101575.42;1660647;85;25850;-61
2022/02/11 07:25:34;;;;;;;51.95;27.05;;;;;;;1.80;70.82;101580.00;1663937;85;25685;-61
2022/02/11 07:28:01;;;;;;;48.48;24.63;;;;;;;1.92;71.04;101581.34;1668616;86;25808;-61
2022/02/11 07:30:28;;;;;;;44.42;24.30;;;;;;;2.06;71.06;101582.97;1677835;84;26333;-62
2022/02/11 07:32:55;;;;;;;47.70;23.85;;;;;;;2.19;71.14;101580.24;1680235;84;27483;-62
2022/02/11 07:35:23;;;;;;;47.58;22.37;;;;;;;2.37;71.20;101583.07;1679707;85;25973;-62
2022/02/11 07:37:51;;;;;;;40.58;20.48;;;;;;;2.53;71.23;101578.44;1682310;84;25824;-62
2022/02/11 07:40:18;;;;;;;36.88;20.45;;;;;;;2.72;71.28;101582.50;1683128;84;26123;-61
2022/02/11 07:42:47;;;;;;;37.25;19.80;;;;;;;2.82;71.19;101571.40;1679800;84;25767;-62
2022/02/11 07:45:16;;;;;;;39.98;20.60;;;;;;;2.95;70.92;101573.09;1690377;83;27493;-62
2022/02/11 07:47:43;;;;;;;51.63;24.15;;;;;;;3.11;70.86;101584.37;1694313;83;25750;-61
2022/02/11 07:50:18;;;;;;;48.78;24.52;;;;;;;3.23;70.43;101579.81;1689921;83;25720;-61
2022/02/11 07:52:45;;;;;;;48.87;22.93;;;;;;;3.31;70.25;101583.47;1694556;84;26409;-62
2022/02/11 07:55:12;;;;;;;45.48;23.07;;;;;;;3.41;70.26;101569.27;1688035;84;25833;-62
2022/02/11 07:57:39;;;;;;;43.63;20.82;;;;;;;3.49;70.02;101577.80;1690016;83;27337;-62
2022/02/11 08:00:08;;;;;;;46.00;21.62;;;;;;;3.56;69.85;101576.57;1689994;84;25882;-61
2022/02/11 08:02:41;;;;;;;40.95;20.52;;;;;;;3.65;69.94;101576.59;1694682;84;25795;-61
2022/02/11 08:05:10;;;;;;;35.43;19.02;;;;;;;3.75;69.77;101578.38;1689718;84;25848;-62
2022/02/11 08:07:37;;;;;;;50.70;20.50;;;;;;;3.83;69.66;101581.98;1690038;84;25745;-61
2022/02/11 08:10:05;;;;;;;40.20;22.10;;;;;;;3.88;69.37;101581.31;1695176;84;27485;-62
2022/02/11 08:12:34;;;;;;;45.55;22.98;;;;;;;3.96;69.40;101582.27;1706238;83;25783;-61
2022/02/11 08:15:03;;;;;;;46.80;23.05;;;;;;;4.05;69.20;101580.49;1707139;83;25744;-61
2022/02/11 08:17:30;;;;;;;54.27;22.15;;;;;;;4.13;69.09;101582.31;1687562;85;26452;-62
2022/02/11 08:19:57;;;;;;;37.88;20.40;;;;;;;4.21;68.48;101580.62;1723252;82;25715;-62
2022/02/11 08:22:24;;;;;;;35.13;20.23;;;;;;;4.30;68.79;101580.17;1666677;85;28285;-61
2022/02/11 08:24:52;;;;;;;79.67;34.88;;;;;;;4.44;68.82;101582.63;1693234;84;27324;-61
2022/02/11 08:27:19;;;;;;;37.03;20.27;;;;;;;4.58;68.82;101581.91;1691282;84;25772;-61
2022/02/11 08:29:46;;;;;;;40.40;22.00;;;;;;;4.69;68.41;101573.79;1691293;84;26454;-61
2022/02/11 08:32:13;;;;;;;43.87;22.82;;;;;;;4.89;68.68;101577.20;1692879;83;25819;-62
2022/02/11 08:34:40;;;;;;;40.33;21.35;;;;;;;5.10;68.66;101575.25;1689809;83;27478;-62
2022/02/11 08:37:07;;;;;;;37.53;19.92;;;;;;;5.30;68.52;101575.52;1694986;84;25659;-62
2022/02/11 08:39:38;;;;;;;38.38;20.15;;;;;;;5.52;68.42;101571.67;1695190;84;25737;-62
2022/02/11 08:42:06;;;;;;;46.30;20.57;;;;;;;5.75;68.20;101571.73;1691525;83;25791;-62
2022/02/11 08:44:34;;;;;;;36.17;19.55;;;;;;;5.98;67.95;101574.95;1686325;83;26601;-62
2022/02/11 08:47:02;;;;;;;39.65;21.52;;;;;;;6.17;66.84;101576.12;1657642;86;27510;-61
2022/02/11 08:49:29;;;;;;;40.03;22.32;;;;;;;6.39;66.70;101570.88;1653318;85;25504;-61
2022/02/11 08:51:57;;;;;;;47.33;25.12;;;;;;;6.57;65.83;101571.60;1653457;86;25813;-61
2022/02/11 08:54:24;;;;;;;47.98;24.85;;;;;;;6.74;65.37;101572.80;1668516;84;25855;-62
2022/02/11 08:56:51;;;;;;;44.20;21.42;;;;;;;6.98;65.56;101572.75;1689392;84;26038;-62
2022/02/11 08:59:17;;;;;;;41.37;21.10;;;;;;;7.24;64.99;101572.97;1649524;87;27460;-62
2022/02/11 09:01:44;;;;;;;36.50;20.43;;;;;;;7.46;63.87;101577.39;1669379;85;25500;-62
2022/02/11 09:04:11;;;;;;;35.78;19.65;;;;;;;7.64;63.74;101575.34;1651175;84;25812;-62
2022/02/11 09:06:38;;;;;;;42.35;21.50;;;;;;;7.82;63.20;101567.09;1656358;85;26653;-62
2022/02/11 09:09:05;;;;;;;39.13;21.37;;;;;;;8.06;62.98;101571.34;1630086;87;25772;-62
2022/02/11 09:11:32;;;;;;;44.77;23.55;;;;;;;8.28;62.50;101572.63;1595278;87;27488;-62
2022/02/11 09:14:19;;;;;;;41.02;23.98;;;;;;;8.54;61.86;101576.27;1622786;86;26387;-62
2022/02/11 09:16:46;;;;;;;37.35;22.50;;;;;;;8.86;62.16;101571.89;1692331;83;25483;-62
2022/02/11 09:19:12;;;;;;;40.98;22.55;;;;;;;9.34;60.77;101565.02;1688699;84;25801;-62
2022/02/11 09:21:39;;;;;;;36.80;22.75;;;;;;;10.03;59.95;101565.91;1698751;83;26240;-62
2022/02/11 09:24:06;;;;;;;38.78;22.67;;;;;;;10.90;58.28;101561.63;1693983;83;27486;-62
2022/02/11 09:26:34;;;;;;;35.63;21.37;;;;;;;11.74;57.73;101559.94;1711826;83;25837;-62
2022/02/11 09:29:06;;;;;;;39.20;22.80;;;;;;;12.57;56.32;101553.25;1704294;83;25746;-62
2022/02/11 09:31:33;;;;;;;44.48;21.73;;;;;;;13.23;55.41;101548.91;1705678;83;25789;-62
2022/02/11 09:34:21;;;;;;;41.25;22.80;;;;;;;13.82;52.48;101544.24;1700997;84;25811;-62
2022/02/11 09:36:48;;;;;;;36.42;21.35;;;;;;;14.39;51.26;101543.10;1687212;84;27482;-63
2022/02/11 09:39:15;;;;;;;38.28;21.37;;;;;;;14.98;50.71;101543.05;1709357;83;25845;-63
2022/02/11 09:41:43;;;;;;;46.75;20.88;;;;;;;15.55;51.10;101544.38;1715011;83;25719;-62
2022/02/11 09:44:13;;;;;;;40.33;21.40;;;;;;;16.15;50.53;101543.04;1708511;82;26471;-63
2022/02/11 09:46:40;;;;;;;40.85;20.62;;;;;;;16.67;49.03;101546.41;1675573;85;25784;-63
2022/02/11 09:49:08;;;;;;;47.75;19.35;;;;;;;17.20;46.17;101534.22;1670732;84;28096;-62
2022/02/11 09:51:35;;;;;;;34.90;19.05;;;;;;;17.58;46.79;101531.99;1673059;84;25847;-62
2022/02/11 09:54:02;;;;;;;33.78;19.60;;;;;;;18.20;46.44;101532.71;1671111;84;25489;-62
2022/02/11 09:56:30;;;;;;;41.83;19.50;;;;;;;18.69;45.23;101523.17;1663061;83;26946;-63
2022/02/11 09:58:59;;;;;;;31.65;19.37;;;;;;;19.05;44.14;101520.08;1736147;81;25757;-63
2022/02/11 10:01:26;;;;;;;53.13;21.52;;;;;;;19.47;40.87;101522.70;1720974;81;27478;-63
2022/02/11 10:04:19;;;;;;;32.33;19.20;;;;;;;19.53;40.65;101514.66;1704874;84;25506;-63
2022/02/11 10:06:48;;;;;;;36.48;19.73;;;;;;;19.83;40.01;101516.20;1704518;82;25740;-63
2022/02/11 10:09:17;;;;;;;35.25;18.48;;;;;;;20.09;39.09;101510.94;1691139;84;25787;-63
2022/02/11 10:11:45;;;;;;;33.78;19.23;;;;;;;20.55;38.36;101510.09;1673293;84;25774;-63
2022/02/11 10:14:26;;;;;;;27.30;18.37;;;;;;;20.83;37.64;101506.78;1673158;85;27466;-64
2022/02/11 10:17:03;;;;;;;38.60;18.23;;;;;;;21.27;37.20;101502.36;1673365;84;25870;-64
2022/02/11 10:19:52;;;;;;;29.85;18.42;;;;;;;21.51;36.77;101501.20;1673248;84;25825;-64
2022/02/11 10:22:24;;;;;;;32.17;17.80;;;;;;;21.70;34.20;101501.67;1667363;84;26129;-63
2022/02/11 10:24:54;;;;;;;33.63;18.07;;;;;;;22.08;34.17;101497.87;1684220;84;25892;-63
2022/02/11 10:27:28;;;;;;;32.63;17.57;;;;;;;22.32;34.22;101498.83;1659388;84;27549;-63
2022/02/11 10:30:01;;;;;;;32.10;18.10;;;;;;;22.60;33.25;101495.84;1658930;85;25754;-63
2022/02/11 10:32:52;;;;;;;30.53;17.57;;;;;;;22.85;32.91;101490.77;1702769;84;25729;-64
2022/02/11 10:35:25;;;;;;;34.65;17.45;;;;;;;23.05;32.59;101479.05;1708168;83;26633;-63
2022/02/11 10:38:17;;;;;;;31.55;16.87;;;;;;;23.31;31.25;101476.19;1715460;83;25616;-63
2022/02/11 10:40:45;;;;;;;29.82;14.87;;;;;;;23.58;31.70;101475.75;1707070;83;27437;-64
2022/02/11 10:43:22;;;;;;;22.70;12.68;;;;;;;24.17;31.76;101472.86;1685755;85;25786;-63
2022/02/11 10:45:49;;;;;;;23.50;11.03;;;;;;;24.54;30.21;101465.04;1686744;84;25737;-64
2022/02/11 10:48:19;;;;;;;20.82;10.68;;;;;;;24.70;27.92;101461.55;1683276;83;26066;-64
2022/02/11 10:50:56;;;;;;;15.63;9.85;;;;;;;24.49;26.60;101459.31;1680852;84;25762;-63
2022/02/11 10:53:35;;;;;;;18.30;8.23;;;;;;;23.97;24.37;101459.61;1681032;84;27586;-63
2022/02/11 10:56:04;;;;;;;18.73;8.03;;;;;;;23.50;25.13;101454.80;1681136;85;25500;-64
2022/02/11 10:58:32;;;;;;;15.00;8.25;;;;;;;23.38;25.13;101449.06;1709178;83;25758;-64
2022/02/11 11:01:03;;;;;;;22.45;8.93;;;;;;;23.36;25.10;101442.92;1715102;83;26160;-64
2022/02/11 11:03:34;;;;;;;19.95;7.20;;;;;;;23.74;26.64;101434.17;1715388;83;25695;-64
2022/02/11 11:06:05;;;;;;;16.57;6.58;;;;;;;24.27;25.56;101431.19;1715467;83;27465;-64
2022/02/11 11:08:37;;;;;;;15.95;6.10;;;;;;;24.50;24.74;101428.55;1691795;83;26298;-64
2022/02/11 11:11:09;;;;;;;13.45;6.30;;;;;;;24.85;25.91;101426.38;1654482;83;33001;-64
2022/02/11 11:13:38;;;;;;;13.28;5.17;;;;;;;25.12;23.99;101425.47;1653563;85;26564;-64
2022/02/11 11:16:08;;;;;;;11.48;5.37;;;;;;;25.05;24.13;101423.27;1653770;86;25733;-64
2022/02/11 11:18:39;;;;;;;10.30;5.30;;;;;;;25.50;24.20;101423.84;1661086;83;27481;-64
2022/02/11 11:21:09;;;;;;;8.05;5.08;;;;;;;25.82;22.39;101421.95;1687472;83;25979;-64
2022/02/11 11:23:50;;;;;;;13.70;5.42;;;;;;;25.67;23.13;101418.66;1682380;83;25743;-64
2022/02/11 11:26:16;;;;;;;15.18;4.42;;;;;;;26.06;23.43;101410.64;1686480;84;25903;-64
2022/02/11 11:28:52;;;;;;;9.28;5.20;;;;;;;26.64;23.54;101409.19;1682796;85;25813;-64
2022/02/11 11:31:29;;;;;;;18.17;5.42;;;;;;;26.95;22.10;101410.14;1673824;85;27448;-65
2022/02/11 11:34:20;;;;;;;8.85;4.25;;;;;;;27.04;22.20;101399.09;1691335;83;25468;-64
2022/02/11 11:36:51;;;;;;;8.75;3.77;;;;;;;27.30;21.47;101394.30;1674513;84;25687;-64
2022/02/11 11:39:19;;;;;;;9.00;4.30;;;;;;;27.24;21.45;101388.33;1668841;85;26455;-64
2022/02/11 11:42:06;;;;;;;12.75;4.45;;;;;;;27.05;20.70;101392.50;1680720;84;25635;-64
2022/02/11 11:44:48;;;;;;;9.38;4.30;;;;;;;26.34;20.18;101389.21;1679640;83;27495;-64
2022/02/11 11:47:27;;;;;;;12.33;4.92;;;;;;;25.90;20.54;101387.77;1652289;85;26882;-64
2022/02/11 11:49:55;;;;;;;6.33;4.17;;;;;;;25.90;21.71;101385.02;1663645;85;25808;-63
2022/02/11 11:52:21;;;;;;;17.57;4.87;;;;;;;25.99;21.32;101375.92;1673774;84;25827;-63
2022/02/11 11:54:48;;;;;;;6.67;4.60;;;;;;;25.82;21.74;101381.16;1677210;85;25932;-64
2022/02/11 11:57:17;;;;;;;10.82;4.95;;;;;;;25.31;20.91;101379.63;1656779;85;27510;-63
2022/02/11 11:59:57;;;;;;;7.67;4.80;;;;;;;24.99;21.85;101369.94;1685043;84;25543;-64
2022/02/11 12:02:31;;;;;;;9.88;4.72;;;;;;;24.93;21.78;101372.16;1689800;83;25723;-64
2022/02/11 12:05:00;;;;;;;19.82;4.65;;;;;;;24.61;21.85;101373.41;1677738;83;26805;-64
2022/02/11 12:07:37;;;;;;;5.58;4.58;;;;;;;24.34;21.91;101374.29;1677464;85;25776;-64
2022/02/11 12:10:09;;;;;;;7.87;4.70;;;;;;;24.06;22.69;101375.91;1687995;84;27559;-64
2022/02/11 12:12:37;;;;;;;8.60;4.90;;;;;;;23.65;22.93;101376.91;1707600;84;25814;-64
2022/02/11 12:15:09;;;;;;;12.40;5.30;;;;;;;23.40;23.36;101375.58;1684995;83;25846;-63
2022/02/11 12:17:36;;;;;;;12.88;6.90;;;;;;;23.17;23.51;101370.41;1674749;84;25823;-64
2022/02/11 12:20:05;;;;;;;10.03;6.30;;;;;;;22.95;23.80;101366.41;1673534;85;25785;-64
2022/02/11 12:22:32;;;;;;;26.65;6.97;;;;;;;22.65;23.45;101365.83;1675251;84;27530;-63
2022/02/11 12:27:53;;;;;;;12.40;5.28;;;;;;;22.29;24.78;101375.05;1678846;85;25750;-64
2022/02/11 12:30:25;;;;;;;34.10;8.23;;;;;;;22.21;23.89;101371.95;1676333;85;25788;-63
2022/02/11 12:32:57;;;;;;;64.55;9.83;;;;;;;22.07;24.86;101373.74;1677645;85;25758;-64
2022/02/11 12:35:30;;;;;;;13.35;6.28;;;;;;;22.06;24.48;101377.52;1691400;83;28255;-64
2022/02/11 12:38:03;;;;;;;;;;;;;;;21.78;24.22;101381.06;1679888;84;25642;-63
2022/02/11 12:44:45;;;;;;;32.95;15.18;;;;;;;21.61;25.00;101375.52;1688481;83;25784;-63
2022/02/11 12:47:12;;;;;;;31.42;15.50;;;;;;;21.31;27.47;101368.23;1685947;83;25820;-63
2022/02/11 12:49:51;;;;;;;36.17;16.07;;;;;;;21.18;27.97;101369.43;1676252;85;27483;-63
2022/02/11 12:52:25;;;;;;;19.15;12.18;;;;;;;21.17;28.06;101365.86;1673558;85;25792;-63
2022/02/11 12:55:06;;;;;;;22.32;12.10;;;;;;;21.12;28.34;101368.30;1673529;84;25765;-64
2022/02/11 12:57:35;;;;;;;27.90;12.00;;;;;;;20.94;28.32;101370.09;1678989;83;26593;-64
2022/02/11 13:00:06;;;;;;;25.37;11.50;;;;;;;21.19;28.65;101373.36;1670541;83;25682;-64
2022/02/11 13:02:36;;;;;;;34.15;14.45;;;;;;;21.41;27.81;101371.52;1673339;85;27589;-64
2022/02/11 13:05:11;;;;;;;44.73;17.50;;;;;;;21.40;27.85;101372.55;1673079;85;25848;-63
2022/02/11 13:07:42;;;;;;;29.35;15.65;;;;;;;21.40;27.65;101375.79;1674436;83;25849;-63
2022/02/11 13:10:20;;;;;;;31.33;18.77;;;;;;;21.54;28.01;101373.55;1655106;84;25822;-64
2022/02/11 13:12:50;;;;;;;46.68;23.52;;;;;;;21.84;27.45;101373.42;1673299;85;25490;-63
2022/02/11 13:15:19;;;;;;;50.10;19.20;;;;;;;22.03;27.62;101373.80;1673268;84;27479;-63
2022/02/11 13:17:48;;;;;;;33.40;9.68;;;;;;;22.26;26.50;101367.25;1673506;84;25460;-63
2022/02/11 13:20:20;;;;;;;42.03;11.05;;;;;;;22.17;26.17;101371.52;1674346;83;25764;-64
2022/02/11 13:22:50;;;;;;;21.50;9.35;;;;;;;21.56;27.01;101371.44;1673537;85;25835;-64
2022/02/11 13:25:21;;;;;;;18.80;9.80;;;;;;;20.93;26.87;101380.70;1678012;84;25824;-64
2022/02/11 13:27:54;;;;;;;22.22;8.60;;;;;;;20.16;27.87;101379.96;1680402;85;27481;-63
2022/02/11 13:30:32;;;;;;;24.52;9.68;;;;;;;19.69;28.56;101379.13;1658277;82;25536;-63
2022/02/11 13:33:19;;;;;;;17.87;9.83;;;;;;;19.28;29.04;101377.52;1715032;82;25822;-63
2022/02/11 13:35:46;;;;;;;15.85;9.45;;;;;;;18.69;29.79;101373.81;1714685;82;25835;-63
2022/02/11 13:38:29;;;;;;;19.50;9.85;;;;;;;18.24;30.36;101376.98;1697983;82;25806;-64
2022/02/11 13:41:03;;;;;;;19.43;10.57;;;;;;;17.78;30.93;101379.34;1674963;84;27573;-64
2022/02/11 13:43:47;;;;;;;20.02;9.93;;;;;;;17.43;31.54;101379.48;1671265;85;25945;-63
2022/02/11 13:46:32;;;;;;;24.15;10.53;;;;;;;17.28;31.63;101384.70;1675010;85;25714;-63
2022/02/11 13:49:10;;;;;;;27.90;10.78;;;;;;;17.17;32.13;101379.03;1647158;81;25745;-63
2022/02/11 13:51:39;;;;;;;25.80;11.03;;;;;;;17.00;32.43;101378.64;1671299;85;25751;-63
2022/02/11 13:54:16;;;;;;;26.30;10.30;;;;;;;16.96;32.69;101385.43;1669882;85;27436;-64
2022/02/11 13:56:49;;;;;;;22.50;10.48;;;;;;;16.95;33.01;101382.37;1673059;85;25501;-63
2022/02/11 13:59:26;;;;;;;22.32;10.65;;;;;;;16.73;33.53;101385.47;1674174;84;25746;-64
2022/02/11 14:02:03;;;;;;;16.97;9.65;;;;;;;16.49;33.60;101386.17;1705188;83;25808;-63
2022/02/11 14:04:33;;;;;;;23.70;9.65;;;;;;;16.32;33.46;101388.44;1701321;84;25993;-63
2022/02/11 14:06:59;;;;;;;18.57;9.70;;;;;;;16.18;33.55;101388.50;1673719;84;28134;-63
2022/02/11 14:09:35;;;;;;;20.60;11.55;;;;;;;16.04;34.26;101395.34;1705116;83;25467;-63
2022/02/11 14:12:06;;;;;;;17.90;11.18;;;;;;;15.69;34.53;101397.88;1705097;84;26510;-64
2022/02/11 14:14:34;;;;;;;16.82;9.98;;;;;;;15.42;35.20;101405.58;1705324;84;25747;-63
2022/02/11 14:17:04;;;;;;;25.92;9.93;;;;;;;15.14;35.42;101402.88;1678126;84;25701;-63
2022/02/11 14:19:31;;;;;;;16.67;8.75;;;;;;;14.99;35.38;101402.52;1674829;85;28160;-64
2022/02/11 14:22:00;;;;;;;18.23;9.95;;;;;;;14.87;35.59;101404.58;1675479;84;26025;-64
2022/02/11 14:24:30;;;;;;;20.90;9.78;;;;;;;14.80;35.97;101411.59;1674641;84;25817;-64
2022/02/11 14:26:57;;;;;;;21.35;8.83;;;;;;;15.33;35.45;101414.97;1666893;84;25747;-63
2022/02/11 14:29:24;;;;;;;16.45;8.33;;;;;;;15.81;34.87;101417.52;1697407;82;26323;-63
2022/02/11 14:31:52;;;;;;;18.12;9.20;;;;;;;15.96;34.26;101415.98;1675240;85;27488;-63
2022/02/11 14:34:19;;;;;;;18.32;8.50;;;;;;;15.65;34.49;101409.55;1675301;84;25768;-63
2022/02/11 14:36:47;;;;;;;13.38;7.90;;;;;;;15.39;35.00;101411.30;1675634;84;25854;-63
2022/02/11 14:39:17;;;;;;;16.25;7.35;;;;;;;15.13;35.41;101418.30;1711254;81;26527;-63
2022/02/11 14:41:49;;;;;;;25.85;8.28;;;;;;;14.82;35.76;101409.60;1699436;82;25971;-63
2022/02/11 14:44:26;;;;;;;28.30;9.25;;;;;;;14.61;36.22;101422.81;1695200;83;27504;-63
2022/02/11 14:46:58;;;;;;;24.10;8.73;;;;;;;14.38;36.59;101419.10;1693991;83;43134;-62
2022/02/11 14:49:27;;;;;;;45.17;8.75;;;;;;;14.24;36.66;101411.42;1712153;82;25724;-62
2022/02/11 14:52:01;;;;;;;25.23;8.48;;;;;;;14.12;36.92;101425.61;1695843;82;25787;-63
2022/02/11 14:54:31;;;;;;;32.93;9.13;;;;;;;14.01;37.13;101432.03;1693769;83;25779;-63
2022/02/11 14:56:59;;;;;;;63.52;9.90;;;;;;;13.92;37.30;101435.07;1694746;84;27576;-62
2022/02/11 14:59:27;;;;;;;35.15;8.73;;;;;;;13.85;37.61;101431.75;1694472;84;25662;-63
2022/02/11 15:01:55;;;;;;;41.10;9.98;;;;;;;13.73;37.75;101431.88;1719302;82;25537;-63
2022/02/11 15:04:24;;;;;;;28.75;8.35;;;;;;;13.66;37.94;101434.78;1730482;82;25791;-62
2022/02/11 15:06:51;;;;;;;20.32;8.80;;;;;;;13.61;38.00;101437.03;1731310;82;25823;-62
2022/02/11 15:09:20;;;;;;;33.13;8.90;;;;;;;13.52;38.13;101440.58;1719074;81;27453;-63
2022/02/11 15:11:47;;;;;;;24.98;9.53;;;;;;;13.44;38.30;101438.08;1691888;84;25824;-63
2022/02/11 15:14:14;;;;;;;37.65;9.68;;;;;;;13.33;38.48;101432.74;1694695;84;25676;-63